sensor_id;sensor_type;location;lat;lon;timestamp;P1;durP1;ratioP1;P2;durP2;ratioP2
48375;SDS011;34178;50.904;11.560;2023-06-14T00:01:24;9.98;;;4.65;;
48375;SDS011;34178;50.904;11.560;2023-06-14T00:03:50;8.10;;;4.78;;
48375;SDS011;34178;50.904;11.560;2023-06-14T00:06:16;8.07;;;5.10;;
48375;SDS011;34178;50.904;11.560;2023-06-14T00:08:42;8.77;;;5.43;;
48375;SDS011;34178;50.904;11.560;2023-06-14T00:11:08;9.13;;;4.57;;
48375;SDS011;34178;50.904;11.560;2023-06-14T00:13:34;9.98;;;4.63;;
48375;SDS011;34178;50.904;11.560;2023-06-14T00:15:59;8.70;;;5.05;;
48375;SDS011;34178;50.904;11.560;2023-06-14T00:18:25;12.95;;;5.20;;
48375;SDS011;34178;50.904;11.560;2023-06-14T00:20:54;7.35;;;4.32;;
48375;SDS011;34178;50.904;11.560;2023-06-14T00:23:20;10.57;;;5.03;;
48375;SDS011;34178;50.904;11.560;2023-06-14T00:25:46;9.10;;;5.13;;
48375;SDS011;34178;50.904;11.560;2023-06-14T00:28:12;9.15;;;5.00;;
48375;SDS011;34178;50.904;11.560;2023-06-14T00:30:37;9.32;;;5.78;;
48375;SDS011;34178;50.904;11.560;2023-06-14T00:33:03;9.50;;;5.00;;
48375;SDS011;34178;50.904;11.560;2023-06-14T00:35:29;10.10;;;4.75;;
48375;SDS011;34178;50.904;11.560;2023-06-14T00:37:55;9.27;;;5.22;;
48375;SDS011;34178;50.904;11.560;2023-06-14T00:40:21;10.75;;;5.18;;
48375;SDS011;34178;50.904;11.560;2023-06-14T00:42:47;8.50;;;5.15;;
48375;SDS011;34178;50.904;11.560;2023-06-14T00:45:12;7.88;;;5.00;;
48375;SDS011;34178;50.904;11.560;2023-06-14T00:47:38;9.52;;;4.82;;
48375;SDS011;34178;50.904;11.560;2023-06-14T00:50:06;12.23;;;5.15;;
48375;SDS011;34178;50.904;11.560;2023-06-14T00:52:33;8.00;;;4.97;;
48375;SDS011;34178;50.904;11.560;2023-06-14T00:54:59;8.75;;;5.03;;
48375;SDS011;34178;50.904;11.560;2023-06-14T00:57:26;11.23;;;5.75;;
48375;SDS011;34178;50.904;11.560;2023-06-14T00:59:52;12.43;;;5.20;;
48375;SDS011;34178;50.904;11.560;2023-06-14T01:02:19;9.38;;;4.88;;
48375;SDS011;34178;50.904;11.560;2023-06-14T01:04:46;9.10;;;5.00;;
48375;SDS011;34178;50.904;11.560;2023-06-14T01:15:09;10.18;;;5.35;;
48375;SDS011;34178;50.904;11.560;2023-06-14T01:17:37;9.27;;;5.28;;
48375;SDS011;34178;50.904;11.560;2023-06-14T01:20:06;8.25;;;4.38;;
48375;SDS011;34178;50.904;11.560;2023-06-14T01:22:37;8.40;;;5.18;;
48375;SDS011;34178;50.904;11.560;2023-06-14T01:25:08;9.20;;;5.20;;
48375;SDS011;34178;50.904;11.560;2023-06-14T01:27:34;10.15;;;5.78;;
48375;SDS011;34178;50.904;11.560;2023-06-14T01:30:00;10.52;;;6.43;;
48375;SDS011;34178;50.904;11.560;2023-06-14T01:32:27;10.05;;;5.32;;
48375;SDS011;34178;50.904;11.560;2023-06-14T01:34:54;10.60;;;5.72;;
48375;SDS011;34178;50.904;11.560;2023-06-14T01:37:20;12.65;;;5.38;;
48375;SDS011;34178;50.904;11.560;2023-06-14T01:39:47;8.52;;;5.18;;
48375;SDS011;34178;50.904;11.560;2023-06-14T01:42:16;11.23;;;5.90;;
48375;SDS011;34178;50.904;11.560;2023-06-14T01:44:43;11.25;;;6.20;;
48375;SDS011;34178;50.904;11.560;2023-06-14T01:47:10;8.50;;;4.85;;
48375;SDS011;34178;50.904;11.560;2023-06-14T01:49:38;10.13;;;5.50;;
48375;SDS011;34178;50.904;11.560;2023-06-14T01:52:04;9.82;;;5.30;;
48375;SDS011;34178;50.904;11.560;2023-06-14T01:54:31;10.73;;;5.78;;
48375;SDS011;34178;50.904;11.560;2023-06-14T01:56:56;8.18;;;5.00;;
48375;SDS011;34178;50.904;11.560;2023-06-14T01:59:22;9.73;;;5.00;;
48375;SDS011;34178;50.904;11.560;2023-06-14T02:01:48;10.05;;;5.03;;
48375;SDS011;34178;50.904;11.560;2023-06-14T02:04:13;11.68;;;5.40;;
48375;SDS011;34178;50.904;11.560;2023-06-14T02:06:39;7.72;;;4.70;;
48375;SDS011;34178;50.904;11.560;2023-06-14T02:09:05;8.02;;;5.53;;
48375;SDS011;34178;50.904;11.560;2023-06-14T02:11:30;12.45;;;5.80;;
48375;SDS011;34178;50.904;11.560;2023-06-14T02:13:56;7.65;;;5.13;;
48375;SDS011;34178;50.904;11.560;2023-06-14T02:16:24;9.88;;;5.18;;
48375;SDS011;34178;50.904;11.560;2023-06-14T02:18:53;8.30;;;5.43;;
48375;SDS011;34178;50.904;11.560;2023-06-14T02:21:18;10.57;;;5.60;;
48375;SDS011;34178;50.904;11.560;2023-06-14T02:23:44;9.77;;;5.90;;
48375;SDS011;34178;50.904;11.560;2023-06-14T02:26:10;11.10;;;5.50;;
48375;SDS011;34178;50.904;11.560;2023-06-14T02:28:35;9.80;;;5.28;;
48375;SDS011;34178;50.904;11.560;2023-06-14T02:31:01;8.85;;;5.45;;
48375;SDS011;34178;50.904;11.560;2023-06-14T02:33:27;9.10;;;5.35;;
48375;SDS011;34178;50.904;11.560;2023-06-14T02:35:53;11.07;;;5.75;;
48375;SDS011;34178;50.904;11.560;2023-06-14T02:38:19;11.93;;;6.05;;
48375;SDS011;34178;50.904;11.560;2023-06-14T02:40:44;10.85;;;5.22;;
48375;SDS011;34178;50.904;11.560;2023-06-14T02:43:10;15.38;;;6.13;;
48375;SDS011;34178;50.904;11.560;2023-06-14T02:45:36;10.13;;;5.90;;
48375;SDS011;34178;50.904;11.560;2023-06-14T02:48:01;7.68;;;5.53;;
48375;SDS011;34178;50.904;11.560;2023-06-14T02:50:27;9.38;;;5.97;;
48375;SDS011;34178;50.904;11.560;2023-06-14T02:52:54;9.43;;;5.47;;
48375;SDS011;34178;50.904;11.560;2023-06-14T02:55:22;9.07;;;5.78;;
48375;SDS011;34178;50.904;11.560;2023-06-14T02:57:47;10.32;;;5.45;;
48375;SDS011;34178;50.904;11.560;2023-06-14T03:00:13;11.82;;;6.07;;
48375;SDS011;34178;50.904;11.560;2023-06-14T03:02:39;8.57;;;5.78;;
48375;SDS011;34178;50.904;11.560;2023-06-14T03:05:05;10.02;;;5.70;;
48375;SDS011;34178;50.904;11.560;2023-06-14T03:07:32;9.50;;;5.50;;
48375;SDS011;34178;50.904;11.560;2023-06-14T03:09:57;7.85;;;5.38;;
48375;SDS011;34178;50.904;11.560;2023-06-14T03:12:23;8.60;;;5.80;;
48375;SDS011;34178;50.904;11.560;2023-06-14T03:14:49;11.38;;;5.78;;
48375;SDS011;34178;50.904;11.560;2023-06-14T03:17:16;8.50;;;5.75;;
48375;SDS011;34178;50.904;11.560;2023-06-14T03:19:42;9.75;;;6.10;;
48375;SDS011;34178;50.904;11.560;2023-06-14T03:22:08;7.72;;;5.10;;
48375;SDS011;34178;50.904;11.560;2023-06-14T03:24:36;10.90;;;4.93;;
48375;SDS011;34178;50.904;11.560;2023-06-14T03:27:03;8.25;;;5.40;;
48375;SDS011;34178;50.904;11.560;2023-06-14T03:29:29;9.77;;;5.47;;
48375;SDS011;34178;50.904;11.560;2023-06-14T03:31:59;10.10;;;4.95;;
48375;SDS011;34178;50.904;11.560;2023-06-14T03:34:26;7.30;;;4.80;;
48375;SDS011;34178;50.904;11.560;2023-06-14T03:36:52;7.53;;;4.82;;
48375;SDS011;34178;50.904;11.560;2023-06-14T03:39:18;8.93;;;4.85;;
48375;SDS011;34178;50.904;11.560;2023-06-14T03:41:44;7.70;;;4.60;;
48375;SDS011;34178;50.904;11.560;2023-06-14T03:44:10;8.90;;;4.88;;
48375;SDS011;34178;50.904;11.560;2023-06-14T03:46:36;11.02;;;5.13;;
48375;SDS011;34178;50.904;11.560;2023-06-14T03:49:01;8.00;;;4.90;;
48375;SDS011;34178;50.904;11.560;2023-06-14T03:51:28;8.10;;;4.53;;
48375;SDS011;34178;50.904;11.560;2023-06-14T03:53:54;7.55;;;4.75;;
48375;SDS011;34178;50.904;11.560;2023-06-14T03:56:20;8.60;;;4.72;;
48375;SDS011;34178;50.904;11.560;2023-06-14T03:58:46;10.82;;;4.97;;
48375;SDS011;34178;50.904;11.560;2023-06-14T04:01:12;11.25;;;5.38;;
48375;SDS011;34178;50.904;11.560;2023-06-14T04:03:38;11.20;;;4.78;;
48375;SDS011;34178;50.904;11.560;2023-06-14T04:06:05;6.70;;;4.00;;
48375;SDS011;34178;50.904;11.560;2023-06-14T04:08:31;8.45;;;4.90;;
48375;SDS011;34178;50.904;11.560;2023-06-14T04:10:57;10.25;;;4.75;;
48375;SDS011;34178;50.904;11.560;2023-06-14T04:13:22;8.10;;;4.25;;
48375;SDS011;34178;50.904;11.560;2023-06-14T04:15:48;11.65;;;4.40;;
48375;SDS011;34178;50.904;11.560;2023-06-14T04:18:14;8.45;;;4.28;;
48375;SDS011;34178;50.904;11.560;2023-06-14T04:20:40;9.35;;;4.30;;
48375;SDS011;34178;50.904;11.560;2023-06-14T04:23:16;7.32;;;4.07;;
48375;SDS011;34178;50.904;11.560;2023-06-14T04:25:46;10.15;;;4.72;;
48375;SDS011;34178;50.904;11.560;2023-06-14T04:28:12;8.43;;;4.53;;
48375;SDS011;34178;50.904;11.560;2023-06-14T04:30:41;9.63;;;4.38;;
48375;SDS011;34178;50.904;11.560;2023-06-14T04:33:07;7.38;;;4.18;;
48375;SDS011;34178;50.904;11.560;2023-06-14T04:35:34;7.72;;;4.00;;
48375;SDS011;34178;50.904;11.560;2023-06-14T04:38:02;10.00;;;4.80;;
48375;SDS011;34178;50.904;11.560;2023-06-14T04:40:37;9.00;;;4.50;;
48375;SDS011;34178;50.904;11.560;2023-06-14T04:43:08;7.28;;;3.80;;
48375;SDS011;34178;50.904;11.560;2023-06-14T04:45:37;7.22;;;4.28;;
48375;SDS011;34178;50.904;11.560;2023-06-14T04:48:02;6.85;;;3.95;;
48375;SDS011;34178;50.904;11.560;2023-06-14T04:50:29;7.82;;;4.18;;
48375;SDS011;34178;50.904;11.560;2023-06-14T04:52:57;9.73;;;5.47;;
48375;SDS011;34178;50.904;11.560;2023-06-14T04:55:24;8.85;;;4.75;;
48375;SDS011;34178;50.904;11.560;2023-06-14T04:57:51;6.40;;;3.92;;
48375;SDS011;34178;50.904;11.560;2023-06-14T05:00:19;12.70;;;5.10;;
48375;SDS011;34178;50.904;11.560;2023-06-14T05:02:45;9.77;;;4.93;;
48375;SDS011;34178;50.904;11.560;2023-06-14T05:05:12;13.10;;;5.25;;
48375;SDS011;34178;50.904;11.560;2023-06-14T05:07:38;9.77;;;4.75;;
48375;SDS011;34178;50.904;11.560;2023-06-14T05:10:04;8.23;;;4.85;;
48375;SDS011;34178;50.904;11.560;2023-06-14T05:12:30;8.20;;;4.75;;
48375;SDS011;34178;50.904;11.560;2023-06-14T05:14:56;7.78;;;4.22;;
48375;SDS011;34178;50.904;11.560;2023-06-14T05:17:23;9.57;;;4.43;;
48375;SDS011;34178;50.904;11.560;2023-06-14T05:19:49;12.60;;;4.60;;
48375;SDS011;34178;50.904;11.560;2023-06-14T05:22:15;8.20;;;4.93;;
48375;SDS011;34178;50.904;11.560;2023-06-14T05:24:41;9.40;;;4.68;;
48375;SDS011;34178;50.904;11.560;2023-06-14T05:27:07;7.60;;;4.32;;
48375;SDS011;34178;50.904;11.560;2023-06-14T05:29:33;7.25;;;4.30;;
48375;SDS011;34178;50.904;11.560;2023-06-14T05:31:58;7.72;;;4.45;;
48375;SDS011;34178;50.904;11.560;2023-06-14T05:34:24;6.95;;;4.25;;
48375;SDS011;34178;50.904;11.560;2023-06-14T05:36:50;8.10;;;4.35;;
48375;SDS011;34178;50.904;11.560;2023-06-14T05:39:16;8.90;;;4.60;;
48375;SDS011;34178;50.904;11.560;2023-06-14T05:41:42;12.23;;;4.70;;
48375;SDS011;34178;50.904;11.560;2023-06-14T05:44:08;8.18;;;4.22;;
48375;SDS011;34178;50.904;11.560;2023-06-14T05:46:34;9.32;;;4.40;;
48375;SDS011;34178;50.904;11.560;2023-06-14T05:49:00;8.18;;;4.55;;
48375;SDS011;34178;50.904;11.560;2023-06-14T05:51:26;9.77;;;4.45;;
48375;SDS011;34178;50.904;11.560;2023-06-14T05:53:52;8.90;;;4.25;;
48375;SDS011;34178;50.904;11.560;2023-06-14T05:56:18;8.65;;;3.95;;
48375;SDS011;34178;50.904;11.560;2023-06-14T05:58:44;8.43;;;4.47;;
48375;SDS011;34178;50.904;11.560;2023-06-14T06:01:10;14.10;;;4.70;;
48375;SDS011;34178;50.904;11.560;2023-06-14T06:03:36;10.68;;;4.45;;
48375;SDS011;34178;50.904;11.560;2023-06-14T06:06:02;8.70;;;4.40;;
48375;SDS011;34178;50.904;11.560;2023-06-14T06:08:28;6.93;;;4.32;;
48375;SDS011;34178;50.904;11.560;2023-06-14T06:10:54;8.80;;;4.95;;
48375;SDS011;34178;50.904;11.560;2023-06-14T06:13:20;9.23;;;5.05;;
48375;SDS011;34178;50.904;11.560;2023-06-14T06:15:46;10.27;;;4.40;;
48375;SDS011;34178;50.904;11.560;2023-06-14T06:18:12;9.52;;;4.75;;
48375;SDS011;34178;50.904;11.560;2023-06-14T06:23:05;11.65;;;5.00;;
48375;SDS011;34178;50.904;11.560;2023-06-14T06:25:30;8.95;;;5.07;;
48375;SDS011;34178;50.904;11.560;2023-06-14T06:27:57;11.00;;;4.93;;
48375;SDS011;34178;50.904;11.560;2023-06-14T06:30:23;10.60;;;4.95;;
48375;SDS011;34178;50.904;11.560;2023-06-14T06:32:49;10.00;;;4.38;;
48375;SDS011;34178;50.904;11.560;2023-06-14T06:35:15;9.02;;;5.15;;
48375;SDS011;34178;50.904;11.560;2023-06-14T06:37:42;9.15;;;4.55;;
48375;SDS011;34178;50.904;11.560;2023-06-14T06:40:08;9.80;;;5.40;;
48375;SDS011;34178;50.904;11.560;2023-06-14T06:42:34;13.70;;;5.47;;
48375;SDS011;34178;50.904;11.560;2023-06-14T06:45:00;9.35;;;5.88;;
48375;SDS011;34178;50.904;11.560;2023-06-14T06:47:26;8.68;;;5.20;;
48375;SDS011;34178;50.904;11.560;2023-06-14T06:49:52;9.05;;;5.18;;
48375;SDS011;34178;50.904;11.560;2023-06-14T06:52:18;10.13;;;5.68;;
48375;SDS011;34178;50.904;11.560;2023-06-14T06:54:43;8.85;;;5.75;;
48375;SDS011;34178;50.904;11.560;2023-06-14T06:57:09;9.43;;;5.70;;
48375;SDS011;34178;50.904;11.560;2023-06-14T06:59:35;10.68;;;5.47;;
48375;SDS011;34178;50.904;11.560;2023-06-14T07:02:01;9.73;;;5.20;;
48375;SDS011;34178;50.904;11.560;2023-06-14T07:04:27;11.98;;;5.53;;
48375;SDS011;34178;50.904;11.560;2023-06-14T07:06:53;8.85;;;5.80;;
48375;SDS011;34178;50.904;11.560;2023-06-14T07:09:18;9.00;;;4.97;;
48375;SDS011;34178;50.904;11.560;2023-06-14T07:11:45;8.65;;;5.45;;
48375;SDS011;34178;50.904;11.560;2023-06-14T07:14:11;11.30;;;5.68;;
48375;SDS011;34178;50.904;11.560;2023-06-14T07:16:37;8.63;;;6.18;;
48375;SDS011;34178;50.904;11.560;2023-06-14T07:19:03;15.38;;;6.63;;
48375;SDS011;34178;50.904;11.560;2023-06-14T07:21:30;10.57;;;6.35;;
48375;SDS011;34178;50.904;11.560;2023-06-14T07:23:55;8.60;;;5.07;;
48375;SDS011;34178;50.904;11.560;2023-06-14T07:26:21;9.80;;;5.70;;
48375;SDS011;34178;50.904;11.560;2023-06-14T07:28:47;13.68;;;6.20;;
48375;SDS011;34178;50.904;11.560;2023-06-14T07:31:14;12.65;;;5.85;;
48375;SDS011;34178;50.904;11.560;2023-06-14T07:33:41;12.10;;;5.47;;
48375;SDS011;34178;50.904;11.560;2023-06-14T07:36:07;12.63;;;6.05;;
48375;SDS011;34178;50.904;11.560;2023-06-14T07:38:33;10.15;;;5.20;;
48375;SDS011;34178;50.904;11.560;2023-06-14T07:40:59;8.13;;;5.35;;
48375;SDS011;34178;50.904;11.560;2023-06-14T07:43:25;9.40;;;5.47;;
48375;SDS011;34178;50.904;11.560;2023-06-14T07:45:51;9.60;;;5.20;;
48375;SDS011;34178;50.904;11.560;2023-06-14T07:48:17;11.10;;;5.22;;
48375;SDS011;34178;50.904;11.560;2023-06-14T07:50:43;10.35;;;5.43;;
48375;SDS011;34178;50.904;11.560;2023-06-14T07:53:09;9.98;;;5.82;;
48375;SDS011;34178;50.904;11.560;2023-06-14T07:55:35;9.25;;;5.38;;
48375;SDS011;34178;50.904;11.560;2023-06-14T07:58:06;10.63;;;5.25;;
48375;SDS011;34178;50.904;11.560;2023-06-14T08:00:31;8.75;;;5.40;;
48375;SDS011;34178;50.904;11.560;2023-06-14T08:02:57;11.48;;;5.20;;
48375;SDS011;34178;50.904;11.560;2023-06-14T08:05:26;9.27;;;5.13;;
48375;SDS011;34178;50.904;11.560;2023-06-14T08:07:52;10.38;;;5.07;;
48375;SDS011;34178;50.904;11.560;2023-06-14T08:10:19;10.25;;;4.72;;
48375;SDS011;34178;50.904;11.560;2023-06-14T08:12:45;8.57;;;5.28;;
48375;SDS011;34178;50.904;11.560;2023-06-14T08:15:10;7.30;;;5.05;;
48375;SDS011;34178;50.904;11.560;2023-06-14T08:17:36;8.27;;;4.72;;
48375;SDS011;34178;50.904;11.560;2023-06-14T08:20:02;13.18;;;5.65;;
48375;SDS011;34178;50.904;11.560;2023-06-14T08:22:31;8.68;;;5.43;;
48375;SDS011;34178;50.904;11.560;2023-06-14T08:25:00;8.70;;;4.85;;
48375;SDS011;34178;50.904;11.560;2023-06-14T08:27:26;11.00;;;4.75;;
48375;SDS011;34178;50.904;11.560;2023-06-14T08:29:52;7.68;;;4.85;;
48375;SDS011;34178;50.904;11.560;2023-06-14T08:32:18;9.40;;;4.45;;
48375;SDS011;34178;50.904;11.560;2023-06-14T08:34:44;8.85;;;4.75;;
48375;SDS011;34178;50.904;11.560;2023-06-14T08:37:10;7.43;;;4.13;;
48375;SDS011;34178;50.904;11.560;2023-06-14T08:39:35;9.75;;;5.13;;
48375;SDS011;34178;50.904;11.560;2023-06-14T08:42:02;7.60;;;4.97;;
48375;SDS011;34178;50.904;11.560;2023-06-14T08:44:29;14.20;;;4.75;;
48375;SDS011;34178;50.904;11.560;2023-06-14T08:46:55;8.45;;;4.93;;
48375;SDS011;34178;50.904;11.560;2023-06-14T08:49:24;16.02;;;4.85;;
48375;SDS011;34178;50.904;11.560;2023-06-14T08:51:56;9.10;;;4.68;;
48375;SDS011;34178;50.904;11.560;2023-06-14T08:54:24;8.60;;;4.68;;
48375;SDS011;34178;50.904;11.560;2023-06-14T08:56:52;7.53;;;4.70;;
48375;SDS011;34178;50.904;11.560;2023-06-14T08:59:22;8.18;;;3.78;;
48375;SDS011;34178;50.904;11.560;2023-06-14T09:01:52;9.30;;;4.93;;
48375;SDS011;34178;50.904;11.560;2023-06-14T09:04:19;7.70;;;4.82;;
48375;SDS011;34178;50.904;11.560;2023-06-14T09:06:46;6.97;;;4.30;;
48375;SDS011;34178;50.904;11.560;2023-06-14T09:09:18;11.07;;;4.20;;
48375;SDS011;34178;50.904;11.560;2023-06-14T09:11:51;9.43;;;4.22;;
48375;SDS011;34178;50.904;11.560;2023-06-14T09:14:19;7.60;;;4.47;;
48375;SDS011;34178;50.904;11.560;2023-06-14T09:16:46;6.03;;;4.00;;
48375;SDS011;34178;50.904;11.560;2023-06-14T09:19:21;6.47;;;4.07;;
48375;SDS011;34178;50.904;11.560;2023-06-14T09:21:49;7.22;;;4.40;;
48375;SDS011;34178;50.904;11.560;2023-06-14T09:24:15;7.25;;;4.07;;
48375;SDS011;34178;50.904;11.560;2023-06-14T09:26:40;9.07;;;4.22;;
48375;SDS011;34178;50.904;11.560;2023-06-14T09:29:06;7.38;;;3.92;;
48375;SDS011;34178;50.904;11.560;2023-06-14T09:31:34;8.23;;;4.07;;
48375;SDS011;34178;50.904;11.560;2023-06-14T09:34:01;8.23;;;4.60;;
48375;SDS011;34178;50.904;11.560;2023-06-14T09:36:27;8.80;;;4.00;;
48375;SDS011;34178;50.904;11.560;2023-06-14T09:38:57;7.35;;;4.07;;
48375;SDS011;34178;50.904;11.560;2023-06-14T09:41:32;8.15;;;4.22;;
48375;SDS011;34178;50.904;11.560;2023-06-14T09:44:08;9.98;;;3.47;;
48375;SDS011;34178;50.904;11.560;2023-06-14T09:46:36;5.95;;;3.70;;
48375;SDS011;34178;50.904;11.560;2023-06-14T09:49:03;9.80;;;3.55;;
48375;SDS011;34178;50.904;11.560;2023-06-14T09:51:30;8.63;;;4.22;;
48375;SDS011;34178;50.904;11.560;2023-06-14T09:54:00;6.40;;;3.65;;
48375;SDS011;34178;50.904;11.560;2023-06-14T09:56:30;7.03;;;3.40;;
48375;SDS011;34178;50.904;11.560;2023-06-14T09:58:57;5.45;;;3.25;;
48375;SDS011;34178;50.904;11.560;2023-06-14T10:01:24;7.35;;;4.05;;
48375;SDS011;34178;50.904;11.560;2023-06-14T10:03:53;7.28;;;3.63;;
48375;SDS011;34178;50.904;11.560;2023-06-14T10:06:24;7.00;;;3.45;;
48375;SDS011;34178;50.904;11.560;2023-06-14T10:08:52;7.43;;;3.53;;
48375;SDS011;34178;50.904;11.560;2023-06-14T10:11:21;5.85;;;3.22;;
48375;SDS011;34178;50.904;11.560;2023-06-14T10:13:47;7.28;;;3.42;;
48375;SDS011;34178;50.904;11.560;2023-06-14T10:16:18;6.10;;;3.35;;
48375;SDS011;34178;50.904;11.560;2023-06-14T10:21:44;5.43;;;3.50;;
48375;SDS011;34178;50.904;11.560;2023-06-14T10:24:12;9.57;;;3.65;;
48375;SDS011;34178;50.904;11.560;2023-06-14T10:26:50;7.07;;;3.25;;
48375;SDS011;34178;50.904;11.560;2023-06-14T10:29:17;10.93;;;3.67;;
48375;SDS011;34178;50.904;11.560;2023-06-14T10:31:55;6.68;;;3.65;;
48375;SDS011;34178;50.904;11.560;2023-06-14T10:34:25;6.73;;;3.83;;
48375;SDS011;34178;50.904;11.560;2023-06-14T10:37:05;6.53;;;3.88;;
48375;SDS011;34178;50.904;11.560;2023-06-14T10:39:32;8.35;;;3.28;;
48375;SDS011;34178;50.904;11.560;2023-06-14T10:42:08;6.47;;;3.58;;
48375;SDS011;34178;50.904;11.560;2023-06-14T10:44:41;9.13;;;4.05;;
48375;SDS011;34178;50.904;11.560;2023-06-14T10:50:08;6.95;;;3.28;;
48375;SDS011;34178;50.904;11.560;2023-06-14T10:52:37;8.05;;;3.40;;
48375;SDS011;34178;50.904;11.560;2023-06-14T10:55:11;6.72;;;3.47;;
48375;SDS011;34178;50.904;11.560;2023-06-14T11:00:08;6.60;;;3.40;;
48375;SDS011;34178;50.904;11.560;2023-06-14T11:05:26;10.13;;;4.00;;
48375;SDS011;34178;50.904;11.560;2023-06-14T11:10:54;9.52;;;3.28;;
48375;SDS011;34178;50.904;11.560;2023-06-14T11:13:25;8.75;;;3.80;;
48375;SDS011;34178;50.904;11.560;2023-06-14T11:15:51;5.93;;;3.30;;
48375;SDS011;34178;50.904;11.560;2023-06-14T11:18:22;6.32;;;3.30;;
48375;SDS011;34178;50.904;11.560;2023-06-14T11:20:55;4.68;;;2.83;;
48375;SDS011;34178;50.904;11.560;2023-06-14T11:23:21;5.47;;;3.22;;
48375;SDS011;34178;50.904;11.560;2023-06-14T11:25:50;6.00;;;3.08;;
48375;SDS011;34178;50.904;11.560;2023-06-14T11:28:16;7.88;;;3.35;;
48375;SDS011;34178;50.904;11.560;2023-06-14T11:30:44;6.68;;;2.95;;
48375;SDS011;34178;50.904;11.560;2023-06-14T11:33:11;9.65;;;3.35;;
48375;SDS011;34178;50.904;11.560;2023-06-14T11:35:42;6.97;;;3.22;;
48375;SDS011;34178;50.904;11.560;2023-06-14T11:38:09;5.47;;;3.17;;
48375;SDS011;34178;50.904;11.560;2023-06-14T11:40:37;6.60;;;3.20;;
48375;SDS011;34178;50.904;11.560;2023-06-14T11:43:03;6.35;;;3.00;;
48375;SDS011;34178;50.904;11.560;2023-06-14T11:45:29;11.25;;;3.45;;
48375;SDS011;34178;50.904;11.560;2023-06-14T11:47:56;9.27;;;3.70;;
48375;SDS011;34178;50.904;11.560;2023-06-14T11:50:23;7.53;;;3.60;;
48375;SDS011;34178;50.904;11.560;2023-06-14T11:52:56;6.55;;;3.45;;
48375;SDS011;34178;50.904;11.560;2023-06-14T11:55:25;5.32;;;3.05;;
48375;SDS011;34178;50.904;11.560;2023-06-14T11:57:51;5.72;;;3.20;;
48375;SDS011;34178;50.904;11.560;2023-06-14T12:00:19;8.50;;;3.40;;
48375;SDS011;34178;50.904;11.560;2023-06-14T12:02:55;11.57;;;3.25;;
48375;SDS011;34178;50.904;11.560;2023-06-14T12:05:22;10.65;;;3.53;;
48375;SDS011;34178;50.904;11.560;2023-06-14T12:07:48;5.70;;;3.28;;
48375;SDS011;34178;50.904;11.560;2023-06-14T12:10:15;5.38;;;3.10;;
48375;SDS011;34178;50.904;11.560;2023-06-14T12:12:42;10.38;;;3.65;;
48375;SDS011;34178;50.904;11.560;2023-06-14T12:15:08;7.35;;;3.13;;
48375;SDS011;34178;50.904;11.560;2023-06-14T12:17:37;9.27;;;3.50;;
48375;SDS011;34178;50.904;11.560;2023-06-14T12:20:07;6.50;;;3.33;;
48375;SDS011;34178;50.904;11.560;2023-06-14T12:22:39;8.23;;;3.60;;
48375;SDS011;34178;50.904;11.560;2023-06-14T12:25:30;5.90;;;3.58;;
48375;SDS011;34178;50.904;11.560;2023-06-14T12:27:58;7.03;;;3.58;;
48375;SDS011;34178;50.904;11.560;2023-06-14T12:30:25;6.97;;;3.55;;
48375;SDS011;34178;50.904;11.560;2023-06-14T12:32:51;7.50;;;3.30;;
48375;SDS011;34178;50.904;11.560;2023-06-14T12:35:17;6.53;;;3.25;;
48375;SDS011;34178;50.904;11.560;2023-06-14T12:37:44;5.63;;;3.08;;
48375;SDS011;34178;50.904;11.560;2023-06-14T12:40:11;7.80;;;3.08;;
48375;SDS011;34178;50.904;11.560;2023-06-14T12:42:37;7.05;;;3.53;;
48375;SDS011;34178;50.904;11.560;2023-06-14T12:45:03;5.53;;;2.85;;
48375;SDS011;34178;50.904;11.560;2023-06-14T12:47:28;7.03;;;3.25;;
48375;SDS011;34178;50.904;11.560;2023-06-14T12:49:54;5.68;;;2.83;;
48375;SDS011;34178;50.904;11.560;2023-06-14T12:52:20;4.95;;;2.83;;
48375;SDS011;34178;50.904;11.560;2023-06-14T12:54:46;5.75;;;2.95;;
48375;SDS011;34178;50.904;11.560;2023-06-14T12:57:11;8.07;;;3.17;;
48375;SDS011;34178;50.904;11.560;2023-06-14T12:59:37;5.72;;;3.03;;
48375;SDS011;34178;50.904;11.560;2023-06-14T13:04:41;4.57;;;2.78;;
48375;SDS011;34178;50.904;11.560;2023-06-14T13:07:07;8.75;;;2.70;;
48375;SDS011;34178;50.904;11.560;2023-06-14T13:09:33;7.25;;;2.50;;
48375;SDS011;34178;50.904;11.560;2023-06-14T13:11:58;5.10;;;2.70;;
48375;SDS011;34178;50.904;11.560;2023-06-14T13:14:24;5.65;;;2.60;;
48375;SDS011;34178;50.904;11.560;2023-06-14T13:16:50;4.45;;;2.50;;
48375;SDS011;34178;50.904;11.560;2023-06-14T13:19:15;5.68;;;2.60;;
48375;SDS011;34178;50.904;11.560;2023-06-14T13:21:41;5.65;;;3.03;;
48375;SDS011;34178;50.904;11.560;2023-06-14T13:24:07;5.63;;;2.45;;
48375;SDS011;34178;50.904;11.560;2023-06-14T13:26:33;6.10;;;2.67;;
48375;SDS011;34178;50.904;11.560;2023-06-14T13:28:59;4.40;;;2.30;;
48375;SDS011;34178;50.904;11.560;2023-06-14T13:31:27;6.25;;;2.65;;
48375;SDS011;34178;50.904;11.560;2023-06-14T13:33:54;3.75;;;2.60;;
48375;SDS011;34178;50.904;11.560;2023-06-14T13:36:19;7.55;;;2.80;;
48375;SDS011;34178;50.904;11.560;2023-06-14T13:38:45;10.23;;;3.15;;
48375;SDS011;34178;50.904;11.560;2023-06-14T13:41:11;4.72;;;2.63;;
48375;SDS011;34178;50.904;11.560;2023-06-14T13:43:36;5.38;;;2.63;;
48375;SDS011;34178;50.904;11.560;2023-06-14T13:46:02;3.75;;;2.10;;
48375;SDS011;34178;50.904;11.560;2023-06-14T13:48:28;6.35;;;2.20;;
48375;SDS011;34178;50.904;11.560;2023-06-14T13:50:53;5.18;;;2.10;;
48375;SDS011;34178;50.904;11.560;2023-06-14T13:53:19;4.38;;;2.15;;
48375;SDS011;34178;50.904;11.560;2023-06-14T13:55:45;7.03;;;2.17;;
48375;SDS011;34178;50.904;11.560;2023-06-14T13:58:10;6.32;;;2.10;;
48375;SDS011;34178;50.904;11.560;2023-06-14T14:00:37;5.60;;;2.10;;
48375;SDS011;34178;50.904;11.560;2023-06-14T14:03:05;4.53;;;2.40;;
48375;SDS011;34178;50.904;11.560;2023-06-14T14:05:31;5.70;;;2.00;;
48375;SDS011;34178;50.904;11.560;2023-06-14T14:07:57;5.85;;;2.10;;
48375;SDS011;34178;50.904;11.560;2023-06-14T14:10:24;4.05;;;2.20;;
48375;SDS011;34178;50.904;11.560;2023-06-14T14:12:50;8.07;;;2.30;;
48375;SDS011;34178;50.904;11.560;2023-06-14T14:15:17;5.18;;;2.08;;
48375;SDS011;34178;50.904;11.560;2023-06-14T14:17:43;4.95;;;2.05;;
48375;SDS011;34178;50.904;11.560;2023-06-14T14:20:09;3.53;;;1.70;;
48375;SDS011;34178;50.904;11.560;2023-06-14T14:22:37;5.60;;;1.90;;
48375;SDS011;34178;50.904;11.560;2023-06-14T14:25:03;4.93;;;2.05;;
48375;SDS011;34178;50.904;11.560;2023-06-14T14:27:29;3.35;;;1.85;;
48375;SDS011;34178;50.904;11.560;2023-06-14T14:29:55;6.38;;;2.05;;
48375;SDS011;34178;50.904;11.560;2023-06-14T14:32:24;4.75;;;1.95;;
48375;SDS011;34178;50.904;11.560;2023-06-14T14:34:50;4.38;;;1.90;;
48375;SDS011;34178;50.904;11.560;2023-06-14T14:37:16;6.03;;;2.03;;
48375;SDS011;34178;50.904;11.560;2023-06-14T14:39:41;9.05;;;2.05;;
48375;SDS011;34178;50.904;11.560;2023-06-14T14:42:09;4.30;;;2.10;;
48375;SDS011;34178;50.904;11.560;2023-06-14T14:44:36;8.20;;;2.70;;
48375;SDS011;34178;50.904;11.560;2023-06-14T14:47:02;5.78;;;2.00;;
48375;SDS011;34178;50.904;11.560;2023-06-14T14:49:28;7.32;;;2.03;;
48375;SDS011;34178;50.904;11.560;2023-06-14T14:51:54;4.53;;;2.03;;
48375;SDS011;34178;50.904;11.560;2023-06-14T14:54:21;6.20;;;2.10;;
48375;SDS011;34178;50.904;11.560;2023-06-14T14:56:48;4.72;;;2.25;;